sensor_id;sensor_type;location;lat;lon;timestamp;P1;durP1;ratioP1;P2;durP2;ratioP2
75064;SDS011;63646;49.110;9.140;2022-11-28T00:02:01;2.75;;;1.73;;
75064;SDS011;63646;49.110;9.140;2022-11-28T00:04:26;2.03;;;1.70;;
75064;SDS011;63646;49.110;9.140;2022-11-28T00:06:52;3.20;;;1.83;;
75064;SDS011;63646;49.110;9.140;2022-11-28T00:09:18;3.60;;;2.00;;
75064;SDS011;63646;49.110;9.140;2022-11-28T00:11:45;2.35;;;1.80;;
75064;SDS011;63646;49.110;9.140;2022-11-28T00:14:12;2.45;;;1.60;;
75064;SDS011;63646;49.110;9.140;2022-11-28T00:16:38;3.72;;;2.00;;
75064;SDS011;63646;49.110;9.140;2022-11-28T00:19:04;4.00;;;1.85;;
75064;SDS011;63646;49.110;9.140;2022-11-28T00:21:30;2.40;;;1.52;;
75064;SDS011;63646;49.110;9.140;2022-11-28T00:23:56;3.28;;;1.85;;
75064;SDS011;63646;49.110;9.140;2022-11-28T00:26:23;3.30;;;2.00;;
75064;SDS011;63646;49.110;9.140;2022-11-28T00:28:54;3.53;;;1.80;;
75064;SDS011;63646;49.110;9.140;2022-11-28T00:31:21;3.65;;;1.75;;
75064;SDS011;63646;49.110;9.140;2022-11-28T00:33:48;2.88;;;1.67;;
75064;SDS011;63646;49.110;9.140;2022-11-28T00:36:14;3.75;;;1.92;;
75064;SDS011;63646;49.110;9.140;2022-11-28T00:38:40;3.17;;;1.60;;
75064;SDS011;63646;49.110;9.140;2022-11-28T00:41:06;2.75;;;1.80;;
75064;SDS011;63646;49.110;9.140;2022-11-28T00:43:34;2.15;;;1.77;;
75064;SDS011;63646;49.110;9.140;2022-11-28T00:45:59;3.67;;;1.80;;
75064;SDS011;63646;49.110;9.140;2022-11-28T00:48:25;3.38;;;1.70;;
75064;SDS011;63646;49.110;9.140;2022-11-28T00:50:51;2.20;;;1.80;;
75064;SDS011;63646;49.110;9.140;2022-11-28T00:53:17;2.95;;;1.63;;
75064;SDS011;63646;49.110;9.140;2022-11-28T00:55:43;3.55;;;1.50;;
75064;SDS011;63646;49.110;9.140;2022-11-28T00:58:08;2.97;;;1.57;;
75064;SDS011;63646;49.110;9.140;2022-11-28T01:00:34;2.85;;;1.75;;
75064;SDS011;63646;49.110;9.140;2022-11-28T01:02:59;3.35;;;1.63;;
75064;SDS011;63646;49.110;9.140;2022-11-28T01:05:25;3.00;;;1.60;;
75064;SDS011;63646;49.110;9.140;2022-11-28T01:07:51;2.40;;;1.67;;
75064;SDS011;63646;49.110;9.140;2022-11-28T01:10:16;1.70;;;1.50;;
75064;SDS011;63646;49.110;9.140;2022-11-28T01:12:41;1.83;;;1.50;;
75064;SDS011;63646;49.110;9.140;2022-11-28T01:15:08;2.92;;;1.63;;
75064;SDS011;63646;49.110;9.140;2022-11-28T01:17:35;1.83;;;1.70;;
75064;SDS011;63646;49.110;9.140;2022-11-28T01:20:02;2.00;;;1.58;;
75064;SDS011;63646;49.110;9.140;2022-11-28T01:22:29;2.88;;;1.63;;
75064;SDS011;63646;49.110;9.140;2022-11-28T01:24:55;1.93;;;1.70;;
75064;SDS011;63646;49.110;9.140;2022-11-28T01:27:20;2.37;;;1.63;;
75064;SDS011;63646;49.110;9.140;2022-11-28T01:29:45;2.90;;;1.77;;
75064;SDS011;63646;49.110;9.140;2022-11-28T01:32:10;1.70;;;1.50;;
75064;SDS011;63646;49.110;9.140;2022-11-28T01:34:36;3.27;;;1.57;;
75064;SDS011;63646;49.110;9.140;2022-11-28T01:37:01;3.40;;;1.60;;
75064;SDS011;63646;49.110;9.140;2022-11-28T01:39:26;2.55;;;1.48;;
75064;SDS011;63646;49.110;9.140;2022-11-28T01:41:52;3.60;;;2.03;;
75064;SDS011;63646;49.110;9.140;2022-11-28T01:46:42;2.23;;;1.80;;
75064;SDS011;63646;49.110;9.140;2022-11-28T01:51:47;2.83;;;2.13;;
75064;SDS011;63646;49.110;9.140;2022-11-28T01:54:14;4.50;;;2.13;;
75064;SDS011;63646;49.110;9.140;2022-11-28T01:56:44;2.28;;;1.55;;
75064;SDS011;63646;49.110;9.140;2022-11-28T02:01:41;2.88;;;1.70;;
75064;SDS011;63646;49.110;9.140;2022-11-28T02:04:08;1.60;;;1.45;;
75064;SDS011;63646;49.110;9.140;2022-11-28T02:06:34;1.75;;;1.65;;
75064;SDS011;63646;49.110;9.140;2022-11-28T02:09:00;2.20;;;1.75;;
75064;SDS011;63646;49.110;9.140;2022-11-28T02:22:07;1.95;;;1.40;;
75064;SDS011;63646;49.110;9.140;2022-11-28T02:33:31;2.67;;;1.63;;
75064;SDS011;63646;49.110;9.140;2022-11-28T02:36:17;2.10;;;1.60;;
75064;SDS011;63646;49.110;9.140;2022-11-28T02:44:35;1.90;;;1.65;;
75064;SDS011;63646;49.110;9.140;2022-11-28T02:47:10;2.40;;;1.60;;
75064;SDS011;63646;49.110;9.140;2022-11-28T02:50:01;2.72;;;1.88;;
75064;SDS011;63646;49.110;9.140;2022-11-28T02:52:40;3.08;;;1.50;;
75064;SDS011;63646;49.110;9.140;2022-11-28T02:55:09;1.80;;;1.60;;
75064;SDS011;63646;49.110;9.140;2022-11-28T02:57:37;2.17;;;1.58;;
75064;SDS011;63646;49.110;9.140;2022-11-28T03:00:26;2.35;;;1.45;;
75064;SDS011;63646;49.110;9.140;2022-11-28T03:08:26;2.90;;;1.50;;
75064;SDS011;63646;49.110;9.140;2022-11-28T03:11:17;1.58;;;1.40;;
75064;SDS011;63646;49.110;9.140;2022-11-28T03:14:08;1.90;;;1.52;;
75064;SDS011;63646;49.110;9.140;2022-11-28T03:16:50;1.77;;;1.45;;
75064;SDS011;63646;49.110;9.140;2022-11-28T03:19:39;1.60;;;1.42;;
75064;SDS011;63646;49.110;9.140;2022-11-28T03:22:12;1.50;;;1.40;;
75064;SDS011;63646;49.110;9.140;2022-11-28T03:28:11;2.10;;;1.52;;
75064;SDS011;63646;49.110;9.140;2022-11-28T03:31:04;2.72;;;2.05;;
75064;SDS011;63646;49.110;9.140;2022-11-28T03:33:35;2.17;;;1.63;;
75064;SDS011;63646;49.110;9.140;2022-11-28T03:36:09;1.95;;;1.42;;
75064;SDS011;63646;49.110;9.140;2022-11-28T03:41:15;2.75;;;1.63;;
75064;SDS011;63646;49.110;9.140;2022-11-28T03:43:45;3.45;;;1.50;;
75064;SDS011;63646;49.110;9.140;2022-11-28T03:46:16;1.85;;;1.67;;
75064;SDS011;63646;49.110;9.140;2022-11-28T03:48:45;1.70;;;1.60;;
75064;SDS011;63646;49.110;9.140;2022-11-28T03:54:01;1.73;;;1.40;;
75064;SDS011;63646;49.110;9.140;2022-11-28T03:59:42;1.42;;;1.33;;
75064;SDS011;63646;49.110;9.140;2022-11-28T04:10:00;1.83;;;1.60;;
75064;SDS011;63646;49.110;9.140;2022-11-28T04:15:25;1.52;;;1.42;;
75064;SDS011;63646;49.110;9.140;2022-11-28T04:17:56;2.40;;;1.40;;
75064;SDS011;63646;49.110;9.140;2022-11-28T04:23:00;1.50;;;1.40;;
75064;SDS011;63646;49.110;9.140;2022-11-28T04:25:30;2.08;;;1.40;;
75064;SDS011;63646;49.110;9.140;2022-11-28T04:27:59;1.73;;;1.40;;
75064;SDS011;63646;49.110;9.140;2022-11-28T04:30:28;1.52;;;1.42;;
75064;SDS011;63646;49.110;9.140;2022-11-28T04:32:56;2.05;;;1.58;;
75064;SDS011;63646;49.110;9.140;2022-11-28T04:35:25;1.50;;;1.40;;
75064;SDS011;63646;49.110;9.140;2022-11-28T04:37:55;2.30;;;1.48;;
75064;SDS011;63646;49.110;9.140;2022-11-28T04:40:23;2.55;;;1.60;;
75064;SDS011;63646;49.110;9.140;2022-11-28T04:42:55;1.75;;;1.45;;
75064;SDS011;63646;49.110;9.140;2022-11-28T04:45:27;1.60;;;1.50;;
75064;SDS011;63646;49.110;9.140;2022-11-28T04:47:56;1.80;;;1.70;;
75064;SDS011;63646;49.110;9.140;2022-11-28T04:50:22;2.10;;;1.50;;
75064;SDS011;63646;49.110;9.140;2022-11-28T04:52:58;2.75;;;1.40;;
75064;SDS011;63646;49.110;9.140;2022-11-28T04:58:03;1.60;;;1.48;;
75064;SDS011;63646;49.110;9.140;2022-11-28T05:00:46;1.73;;;1.33;;
75064;SDS011;63646;49.110;9.140;2022-11-28T05:03:14;2.15;;;1.60;;
75064;SDS011;63646;49.110;9.140;2022-11-28T05:05:41;1.73;;;1.50;;
75064;SDS011;63646;49.110;9.140;2022-11-28T05:08:11;1.85;;;1.30;;
75064;SDS011;63646;49.110;9.140;2022-11-28T05:10:36;1.63;;;1.50;;
75064;SDS011;63646;49.110;9.140;2022-11-28T05:13:02;1.33;;;1.23;;
75064;SDS011;63646;49.110;9.140;2022-11-28T05:15:27;1.88;;;1.55;;
75064;SDS011;63646;49.110;9.140;2022-11-28T05:17:53;2.08;;;1.65;;
75064;SDS011;63646;49.110;9.140;2022-11-28T05:20:18;2.57;;;1.50;;
75064;SDS011;63646;49.110;9.140;2022-11-28T05:22:44;1.83;;;1.48;;
75064;SDS011;63646;49.110;9.140;2022-11-28T05:25:09;1.83;;;1.48;;
75064;SDS011;63646;49.110;9.140;2022-11-28T05:27:34;1.73;;;1.25;;
75064;SDS011;63646;49.110;9.140;2022-11-28T05:30:00;2.17;;;1.70;;
75064;SDS011;63646;49.110;9.140;2022-11-28T05:32:27;1.70;;;1.38;;
75064;SDS011;63646;49.110;9.140;2022-11-28T05:34:54;1.30;;;1.20;;
75064;SDS011;63646;49.110;9.140;2022-11-28T05:37:19;1.63;;;1.40;;
75064;SDS011;63646;49.110;9.140;2022-11-28T05:39:45;1.43;;;1.33;;
75064;SDS011;63646;49.110;9.140;2022-11-28T05:42:10;1.77;;;1.50;;
75064;SDS011;63646;49.110;9.140;2022-11-28T05:44:36;1.57;;;1.47;;
75064;SDS011;63646;49.110;9.140;2022-11-28T05:47:01;2.03;;;1.40;;
75064;SDS011;63646;49.110;9.140;2022-11-28T05:49:26;1.50;;;1.40;;
75064;SDS011;63646;49.110;9.140;2022-11-28T05:51:52;1.52;;;1.42;;
75064;SDS011;63646;49.110;9.140;2022-11-28T05:54:18;1.88;;;1.33;;
75064;SDS011;63646;49.110;9.140;2022-11-28T05:56:43;1.90;;;1.20;;
75064;SDS011;63646;49.110;9.140;2022-11-28T05:59:09;1.70;;;1.58;;
75064;SDS011;63646;49.110;9.140;2022-11-28T06:01:34;1.63;;;1.43;;
75064;SDS011;63646;49.110;9.140;2022-11-28T06:04:00;1.90;;;1.45;;
75064;SDS011;63646;49.110;9.140;2022-11-28T06:06:27;2.85;;;1.73;;
75064;SDS011;63646;49.110;9.140;2022-11-28T06:08:54;3.95;;;1.63;;
75064;SDS011;63646;49.110;9.140;2022-11-28T06:11:20;2.22;;;1.52;;
75064;SDS011;63646;49.110;9.140;2022-11-28T06:13:47;2.15;;;1.80;;
75064;SDS011;63646;49.110;9.140;2022-11-28T06:16:15;6.40;;;1.75;;
75064;SDS011;63646;49.110;9.140;2022-11-28T06:18:45;9.00;;;1.80;;
75064;SDS011;63646;49.110;9.140;2022-11-28T06:21:12;5.38;;;1.73;;
75064;SDS011;63646;49.110;9.140;2022-11-28T06:23:39;6.50;;;1.92;;
75064;SDS011;63646;49.110;9.140;2022-11-28T06:26:09;3.67;;;2.00;;
75064;SDS011;63646;49.110;9.140;2022-11-28T06:28:36;6.90;;;1.75;;
75064;SDS011;63646;49.110;9.140;2022-11-28T06:31:02;6.15;;;2.10;;
75064;SDS011;63646;49.110;9.140;2022-11-28T06:33:28;7.57;;;2.00;;
75064;SDS011;63646;49.110;9.140;2022-11-28T06:36:00;9.45;;;2.08;;
75064;SDS011;63646;49.110;9.140;2022-11-28T06:38:27;4.88;;;1.98;;
75064;SDS011;63646;49.110;9.140;2022-11-28T06:41:00;6.38;;;1.80;;
75064;SDS011;63646;49.110;9.140;2022-11-28T06:43:28;4.60;;;1.88;;
75064;SDS011;63646;49.110;9.140;2022-11-28T06:48:20;3.43;;;1.70;;
75064;SDS011;63646;49.110;9.140;2022-11-28T06:50:45;4.65;;;1.70;;
75064;SDS011;63646;49.110;9.140;2022-11-28T06:53:11;6.80;;;2.15;;
75064;SDS011;63646;49.110;9.140;2022-11-28T06:55:37;5.63;;;1.88;;
75064;SDS011;63646;49.110;9.140;2022-11-28T06:58:02;5.68;;;1.98;;
75064;SDS011;63646;49.110;9.140;2022-11-28T07:00:28;4.53;;;1.90;;
75064;SDS011;63646;49.110;9.140;2022-11-28T07:02:53;4.70;;;2.20;;
75064;SDS011;63646;49.110;9.140;2022-11-28T07:05:19;7.00;;;2.20;;
75064;SDS011;63646;49.110;9.140;2022-11-28T07:07:45;5.18;;;1.90;;
75064;SDS011;63646;49.110;9.140;2022-11-28T07:10:11;4.38;;;1.88;;
75064;SDS011;63646;49.110;9.140;2022-11-28T07:12:36;4.25;;;2.08;;
75064;SDS011;63646;49.110;9.140;2022-11-28T07:15:05;4.57;;;2.13;;
75064;SDS011;63646;49.110;9.140;2022-11-28T07:17:32;5.22;;;2.00;;
75064;SDS011;63646;49.110;9.140;2022-11-28T07:19:58;6.90;;;2.53;;
75064;SDS011;63646;49.110;9.140;2022-11-28T07:22:23;6.87;;;2.10;;
75064;SDS011;63646;49.110;9.140;2022-11-28T07:24:49;4.87;;;2.20;;
75064;SDS011;63646;49.110;9.140;2022-11-28T07:27:14;6.50;;;1.77;;
75064;SDS011;63646;49.110;9.140;2022-11-28T07:29:39;6.77;;;2.23;;
75064;SDS011;63646;49.110;9.140;2022-11-28T07:32:05;5.60;;;1.93;;
75064;SDS011;63646;49.110;9.140;2022-11-28T07:36:57;8.68;;;2.35;;
75064;SDS011;63646;49.110;9.140;2022-11-28T07:39:23;7.60;;;2.25;;
75064;SDS011;63646;49.110;9.140;2022-11-28T07:41:49;4.10;;;2.22;;
75064;SDS011;63646;49.110;9.140;2022-11-28T07:44:14;4.88;;;2.30;;
75064;SDS011;63646;49.110;9.140;2022-11-28T07:46:42;9.93;;;2.58;;
75064;SDS011;63646;49.110;9.140;2022-11-28T07:49:08;3.95;;;2.28;;
75064;SDS011;63646;49.110;9.140;2022-11-28T07:51:34;4.95;;;2.22;;
75064;SDS011;63646;49.110;9.140;2022-11-28T07:54:00;6.35;;;2.22;;
75064;SDS011;63646;49.110;9.140;2022-11-28T07:56:30;7.50;;;1.95;;
75064;SDS011;63646;49.110;9.140;2022-11-28T07:58:58;9.00;;;2.22;;
75064;SDS011;63646;49.110;9.140;2022-11-28T08:01:28;4.30;;;1.90;;
75064;SDS011;63646;49.110;9.140;2022-11-28T08:03:55;4.78;;;2.13;;
75064;SDS011;63646;49.110;9.140;2022-11-28T08:06:24;7.68;;;2.15;;
75064;SDS011;63646;49.110;9.140;2022-11-28T08:08:51;6.07;;;1.83;;
75064;SDS011;63646;49.110;9.140;2022-11-28T08:11:18;9.00;;;2.35;;
75064;SDS011;63646;49.110;9.140;2022-11-28T08:13:44;3.67;;;1.80;;
75064;SDS011;63646;49.110;9.140;2022-11-28T08:16:11;4.60;;;2.20;;
75064;SDS011;63646;49.110;9.140;2022-11-28T08:18:39;2.92;;;1.90;;
75064;SDS011;63646;49.110;9.140;2022-11-28T08:21:06;3.50;;;1.90;;
75064;SDS011;63646;49.110;9.140;2022-11-28T08:23:39;4.53;;;2.13;;
75064;SDS011;63646;49.110;9.140;2022-11-28T08:26:06;4.25;;;1.83;;
75064;SDS011;63646;49.110;9.140;2022-11-28T08:28:33;4.05;;;2.00;;
75064;SDS011;63646;49.110;9.140;2022-11-28T08:30:58;4.55;;;2.10;;
75064;SDS011;63646;49.110;9.140;2022-11-28T08:33:34;3.80;;;1.60;;
75064;SDS011;63646;49.110;9.140;2022-11-28T08:35:59;6.05;;;1.92;;
75064;SDS011;63646;49.110;9.140;2022-11-28T08:38:28;4.20;;;2.30;;
75064;SDS011;63646;49.110;9.140;2022-11-28T08:40:59;4.43;;;1.90;;
75064;SDS011;63646;49.110;9.140;2022-11-28T08:43:25;4.18;;;1.90;;
75064;SDS011;63646;49.110;9.140;2022-11-28T08:45:51;5.37;;;2.00;;
75064;SDS011;63646;49.110;9.140;2022-11-28T08:48:16;4.70;;;1.77;;
75064;SDS011;63646;49.110;9.140;2022-11-28T08:50:48;4.63;;;2.13;;
75064;SDS011;63646;49.110;9.140;2022-11-28T08:53:17;2.85;;;1.70;;
75064;SDS011;63646;49.110;9.140;2022-11-28T08:55:42;3.90;;;1.90;;
75064;SDS011;63646;49.110;9.140;2022-11-28T08:58:10;3.67;;;1.83;;
75064;SDS011;63646;49.110;9.140;2022-11-28T09:00:36;4.32;;;2.03;;
75064;SDS011;63646;49.110;9.140;2022-11-28T09:03:01;5.15;;;2.10;;
75064;SDS011;63646;49.110;9.140;2022-11-28T09:05:27;3.78;;;2.10;;
75064;SDS011;63646;49.110;9.140;2022-11-28T09:07:54;4.28;;;2.10;;
75064;SDS011;63646;49.110;9.140;2022-11-28T09:10:20;2.45;;;1.50;;
75064;SDS011;63646;49.110;9.140;2022-11-28T09:12:45;5.93;;;1.80;;
75064;SDS011;63646;49.110;9.140;2022-11-28T09:15:11;4.50;;;1.70;;
75064;SDS011;63646;49.110;9.140;2022-11-28T09:17:36;3.22;;;1.90;;
75064;SDS011;63646;49.110;9.140;2022-11-28T09:20:02;6.23;;;1.80;;
75064;SDS011;63646;49.110;9.140;2022-11-28T09:22:28;3.33;;;1.70;;
75064;SDS011;63646;49.110;9.140;2022-11-28T09:24:54;3.72;;;1.80;;
75064;SDS011;63646;49.110;9.140;2022-11-28T09:27:22;3.42;;;1.95;;
75064;SDS011;63646;49.110;9.140;2022-11-28T09:29:47;4.97;;;1.75;;
75064;SDS011;63646;49.110;9.140;2022-11-28T09:32:13;3.47;;;1.63;;
75064;SDS011;63646;49.110;9.140;2022-11-28T09:34:38;6.00;;;1.97;;
75064;SDS011;63646;49.110;9.140;2022-11-28T09:37:03;4.15;;;1.70;;
75064;SDS011;63646;49.110;9.140;2022-11-28T09:39:29;3.88;;;2.13;;
75064;SDS011;63646;49.110;9.140;2022-11-28T09:41:57;5.07;;;1.90;;
75064;SDS011;63646;49.110;9.140;2022-11-28T09:44:25;2.38;;;1.95;;
75064;SDS011;63646;49.110;9.140;2022-11-28T09:47:17;4.47;;;1.95;;
75064;SDS011;63646;49.110;9.140;2022-11-28T09:52:32;4.25;;;1.80;;
75064;SDS011;63646;49.110;9.140;2022-11-28T09:55:12;4.35;;;1.90;;
75064;SDS011;63646;49.110;9.140;2022-11-28T09:57:47;3.53;;;2.00;;
75064;SDS011;63646;49.110;9.140;2022-11-28T10:00:18;3.17;;;1.70;;
75064;SDS011;63646;49.110;9.140;2022-11-28T10:02:54;3.20;;;1.77;;
75064;SDS011;63646;49.110;9.140;2022-11-28T10:06:14;3.22;;;1.80;;
75064;SDS011;63646;49.110;9.140;2022-11-28T10:14:05;1.98;;;1.65;;
75064;SDS011;63646;49.110;9.140;2022-11-28T10:19:19;2.53;;;1.80;;
75064;SDS011;63646;49.110;9.140;2022-11-28T10:21:56;3.53;;;1.80;;
75064;SDS011;63646;49.110;9.140;2022-11-28T10:24:34;2.22;;;1.40;;
75064;SDS011;63646;49.110;9.140;2022-11-28T10:27:04;2.78;;;1.83;;
75064;SDS011;63646;49.110;9.140;2022-11-28T10:32:23;3.35;;;1.80;;
75064;SDS011;63646;49.110;9.140;2022-11-28T10:37:49;3.63;;;1.40;;
75064;SDS011;63646;49.110;9.140;2022-11-28T10:43:01;2.33;;;1.67;;
75064;SDS011;63646;49.110;9.140;2022-11-28T10:48:43;3.05;;;1.77;;
75064;SDS011;63646;49.110;9.140;2022-11-28T11:02:52;2.88;;;1.65;;
75064;SDS011;63646;49.110;9.140;2022-11-28T11:05:20;2.00;;;1.52;;
75064;SDS011;63646;49.110;9.140;2022-11-28T11:07:54;2.38;;;1.52;;
75064;SDS011;63646;49.110;9.140;2022-11-28T11:10:26;2.42;;;1.50;;
75064;SDS011;63646;49.110;9.140;2022-11-28T11:13:08;1.88;;;1.55;;
75064;SDS011;63646;49.110;9.140;2022-11-28T11:15:40;3.58;;;1.63;;
75064;SDS011;63646;49.110;9.140;2022-11-28T11:18:19;2.45;;;2.08;;
75064;SDS011;63646;49.110;9.140;2022-11-28T11:23:32;2.53;;;1.77;;
75064;SDS011;63646;49.110;9.140;2022-11-28T11:25:57;2.17;;;1.50;;
75064;SDS011;63646;49.110;9.140;2022-11-28T11:30:59;2.75;;;1.58;;
75064;SDS011;63646;49.110;9.140;2022-11-28T11:33:31;2.47;;;1.58;;
75064;SDS011;63646;49.110;9.140;2022-11-28T11:35:59;2.33;;;1.42;;
75064;SDS011;63646;49.110;9.140;2022-11-28T11:38:29;2.70;;;2.00;;
75064;SDS011;63646;49.110;9.140;2022-11-28T11:40:57;2.63;;;1.70;;
75064;SDS011;63646;49.110;9.140;2022-11-28T11:43:27;4.70;;;1.77;;
75064;SDS011;63646;49.110;9.140;2022-11-28T11:46:15;2.50;;;1.63;;
75064;SDS011;63646;49.110;9.140;2022-11-28T11:48:48;3.05;;;1.73;;
75064;SDS011;63646;49.110;9.140;2022-11-28T11:56:39;2.30;;;1.63;;
75064;SDS011;63646;49.110;9.140;2022-11-28T11:59:12;2.17;;;1.52;;
75064;SDS011;63646;49.110;9.140;2022-11-28T12:01:43;4.40;;;1.70;;
75064;SDS011;63646;49.110;9.140;2022-11-28T12:04:16;2.63;;;1.58;;
75064;SDS011;63646;49.110;9.140;2022-11-28T12:06:49;2.33;;;1.73;;
75064;SDS011;63646;49.110;9.140;2022-11-28T12:11:56;2.50;;;1.52;;
75064;SDS011;63646;49.110;9.140;2022-11-28T12:14:31;2.80;;;1.63;;
75064;SDS011;63646;49.110;9.140;2022-11-28T12:22:11;2.58;;;1.80;;
75064;SDS011;63646;49.110;9.140;2022-11-28T12:25:50;2.75;;;1.70;;
75064;SDS011;63646;49.110;9.140;2022-11-28T12:44:52;2.35;;;1.73;;
75064;SDS011;63646;49.110;9.140;2022-11-28T12:58:47;2.05;;;1.60;;
75064;SDS011;63646;49.110;9.140;2022-11-28T13:14:52;3.00;;;1.55;;
75064;SDS011;63646;49.110;9.140;2022-11-28T13:28:27;1.85;;;1.40;;
75064;SDS011;63646;49.110;9.140;2022-11-28T13:31:03;3.50;;;1.63;;
75064;SDS011;63646;49.110;9.140;2022-11-28T13:36:10;2.67;;;1.77;;
75064;SDS011;63646;49.110;9.140;2022-11-28T13:38:47;1.83;;;1.48;;
75064;SDS011;63646;49.110;9.140;2022-11-28T13:41:26;2.28;;;1.58;;
75064;SDS011;63646;49.110;9.140;2022-11-28T13:46:26;2.67;;;1.60;;
75064;SDS011;63646;49.110;9.140;2022-11-28T13:49:35;1.88;;;1.42;;
75064;SDS011;63646;49.110;9.140;2022-11-28T13:54:52;1.92;;;1.70;;
75064;SDS011;63646;49.110;9.140;2022-11-28T13:59:51;2.35;;;1.70;;
75064;SDS011;63646;49.110;9.140;2022-11-28T14:05:00;1.55;;;1.42;;
75064;SDS011;63646;49.110;9.140;2022-11-28T14:07:28;2.92;;;1.67;;
75064;SDS011;63646;49.110;9.140;2022-11-28T14:12:43;1.80;;;1.60;;
75064;SDS011;63646;49.110;9.140;2022-11-28T14:15:25;2.13;;;1.48;;
75064;SDS011;63646;49.110;9.140;2022-11-28T14:25:52;1.92;;;1.45;;
75064;SDS011;63646;49.110;9.140;2022-11-28T14:30:43;1.63;;;1.40;;
75064;SDS011;63646;49.110;9.140;2022-11-28T14:33:23;2.67;;;1.55;;
75064;SDS011;63646;49.110;9.140;2022-11-28T14:57:02;1.40;;;1.30;;
75064;SDS011;63646;49.110;9.140;2022-11-28T14:59:37;2.47;;;1.58;;
75064;SDS011;63646;49.110;9.140;2022-11-28T15:04:46;1.83;;;1.60;;
75064;SDS011;63646;49.110;9.140;2022-11-28T15:07:50;1.50;;;1.40;;
75064;SDS011;63646;49.110;9.140;2022-11-28T15:10:41;2.17;;;1.33;;
75064;SDS011;63646;49.110;9.140;2022-11-28T15:15:51;1.73;;;1.38;;
75064;SDS011;63646;49.110;9.140;2022-11-28T15:18:17;1.83;;;1.45;;
75064;SDS011;63646;49.110;9.140;2022-11-28T15:20:46;1.70;;;1.50;;
75064;SDS011;63646;49.110;9.140;2022-11-28T15:23:50;2.38;;;1.65;;
75064;SDS011;63646;49.110;9.140;2022-11-28T15:31:53;2.25;;;1.55;;
75064;SDS011;63646;49.110;9.140;2022-11-28T15:34:25;1.52;;;1.42;;
75064;SDS011;63646;49.110;9.140;2022-11-28T15:36:51;2.03;;;1.60;;
75064;SDS011;63646;49.110;9.140;2022-11-28T15:39:23;2.13;;;1.50;;
75064;SDS011;63646;49.110;9.140;2022-11-28T15:41:49;1.40;;;1.30;;
75064;SDS011;63646;49.110;9.140;2022-11-28T15:44:15;3.57;;;1.90;;
75064;SDS011;63646;49.110;9.140;2022-11-28T15:46:41;2.83;;;1.63;;
75064;SDS011;63646;49.110;9.140;2022-11-28T15:49:20;3.25;;;1.60;;
75064;SDS011;63646;49.110;9.140;2022-11-28T15:51:58;3.80;;;1.60;;
75064;SDS011;63646;49.110;9.140;2022-11-28T15:54:37;2.17;;;1.77;;
75064;SDS011;63646;49.110;9.140;2022-11-28T15:57:05;2.55;;;1.42;;
75064;SDS011;63646;49.110;9.140;2022-11-28T15:59:44;2.50;;;1.35;;
75064;SDS011;63646;49.110;9.140;2022-11-28T16:02:12;2.05;;;1.70;;
75064;SDS011;63646;49.110;9.140;2022-11-28T16:04:41;1.67;;;1.50;;
75064;SDS011;63646;49.110;9.140;2022-11-28T16:09:36;3.85;;;1.63;;
75064;SDS011;63646;49.110;9.140;2022-11-28T16:12:03;1.83;;;1.40;;
75064;SDS011;63646;49.110;9.140;2022-11-28T16:14:30;1.85;;;1.45;;
75064;SDS011;63646;49.110;9.140;2022-11-28T16:16:59;2.17;;;1.50;;
75064;SDS011;63646;49.110;9.140;2022-11-28T16:19:33;2.25;;;1.50;;
75064;SDS011;63646;49.110;9.140;2022-11-28T16:22:02;1.83;;;1.40;;
75064;SDS011;63646;49.110;9.140;2022-11-28T16:24:31;1.92;;;1.40;;
75064;SDS011;63646;49.110;9.140;2022-11-28T16:27:06;2.00;;;1.70;;
75064;SDS011;63646;49.110;9.140;2022-11-28T16:29:48;2.55;;;1.40;;
75064;SDS011;63646;49.110;9.140;2022-11-28T16:32:21;1.30;;;1.20;;
75064;SDS011;63646;49.110;9.140;2022-11-28T16:34:51;2.25;;;1.48;;
75064;SDS011;63646;49.110;9.140;2022-11-28T16:37:22;1.50;;;1.35;;
75064;SDS011;63646;49.110;9.140;2022-11-28T16:40:12;1.85;;;1.38;;
75064;SDS011;63646;49.110;9.140;2022-11-28T16:42:41;2.25;;;1.48;;
75064;SDS011;63646;49.110;9.140;2022-11-28T16:45:13;1.58;;;1.48;;
75064;SDS011;63646;49.110;9.140;2022-11-28T16:47:41;1.50;;;1.40;;
75064;SDS011;63646;49.110;9.140;2022-11-28T16:52:38;1.60;;;1.48;;
75064;SDS011;63646;49.110;9.140;2022-11-28T16:55:20;1.45;;;1.35;;
75064;SDS011;63646;49.110;9.140;2022-11-28T17:00:39;1.65;;;1.45;;
75064;SDS011;63646;49.110;9.140;2022-11-28T17:03:19;1.45;;;1.35;;
75064;SDS011;63646;49.110;9.140;2022-11-28T17:06:05;2.38;;;1.30;;
75064;SDS011;63646;49.110;9.140;2022-11-28T17:08:37;2.03;;;1.80;;
75064;SDS011;63646;49.110;9.140;2022-11-28T17:11:02;1.53;;;1.43;;
75064;SDS011;63646;49.110;9.140;2022-11-28T17:13:27;2.42;;;1.40;;
75064;SDS011;63646;49.110;9.140;2022-11-28T17:15:55;2.13;;;1.45;;
75064;SDS011;63646;49.110;9.140;2022-11-28T17:18:20;1.50;;;1.40;;
75064;SDS011;63646;49.110;9.140;2022-11-28T17:20:45;1.40;;;1.30;;
75064;SDS011;63646;49.110;9.140;2022-11-28T17:23:11;1.48;;;1.38;;
75064;SDS011;63646;49.110;9.140;2022-11-28T17:25:39;2.13;;;1.63;;
75064;SDS011;63646;49.110;9.140;2022-11-28T17:28:04;2.35;;;1.45;;
75064;SDS011;63646;49.110;9.140;2022-11-28T17:30:29;2.30;;;1.20;;
75064;SDS011;63646;49.110;9.140;2022-11-28T17:32:55;2.70;;;1.30;;
75064;SDS011;63646;49.110;9.140;2022-11-28T17:35:21;1.67;;;1.40;;
75064;SDS011;63646;49.110;9.140;2022-11-28T17:37:48;1.50;;;1.40;;
75064;SDS011;63646;49.110;9.140;2022-11-28T17:40:14;1.60;;;1.50;;
75064;SDS011;63646;49.110;9.140;2022-11-28T17:42:57;1.95;;;1.52;;
75064;SDS011;63646;49.110;9.140;2022-11-28T17:45:23;2.05;;;1.58;;
75064;SDS011;63646;49.110;9.140;2022-11-28T17:47:49;1.88;;;1.33;;
75064;SDS011;63646;49.110;9.140;2022-11-28T17:50:14;1.45;;;1.30;;
75064;SDS011;63646;49.110;9.140;2022-11-28T17:55:10;1.45;;;1.35;;
75064;SDS011;63646;49.110;9.140;2022-11-28T17:57:35;1.15;;;1.05;;
75064;SDS011;63646;49.110;9.140;2022-11-28T18:00:02;1.38;;;1.27;;
75064;SDS011;63646;49.110;9.140;2022-11-28T18:02:31;1.50;;;1.40;;
75064;SDS011;63646;49.110;9.140;2022-11-28T18:04:56;1.90;;;1.50;;
75064;SDS011;63646;49.110;9.140;2022-11-28T18:07:21;1.47;;;1.37;;
75064;SDS011;63646;49.110;9.140;2022-11-28T18:09:47;1.65;;;1.38;;
75064;SDS011;63646;49.110;9.140;2022-11-28T18:12:12;2.47;;;1.43;;
75064;SDS011;63646;49.110;9.140;2022-11-28T18:14:38;1.50;;;1.40;;
75064;SDS011;63646;49.110;9.140;2022-11-28T18:17:03;1.40;;;1.30;;
75064;SDS011;63646;49.110;9.140;2022-11-28T18:19:29;1.98;;;1.45;;
75064;SDS011;63646;49.110;9.140;2022-11-28T18:21:54;1.50;;;1.40;;
75064;SDS011;63646;49.110;9.140;2022-11-28T18:24:19;1.33;;;1.23;;
75064;SDS011;63646;49.110;9.140;2022-11-28T18:26:45;1.50;;;1.40;;
75064;SDS011;63646;49.110;9.140;2022-11-28T18:29:10;1.70;;;1.58;;
75064;SDS011;63646;49.110;9.140;2022-11-28T18:31:36;2.58;;;1.33;;
75064;SDS011;63646;49.110;9.140;2022-11-28T18:34:02;2.50;;;1.50;;
75064;SDS011;63646;49.110;9.140;2022-11-28T18:36:29;2.10;;;1.70;;
75064;SDS011;63646;49.110;9.140;2022-11-28T18:38:57;2.40;;;1.50;;
75064;SDS011;63646;49.110;9.140;2022-11-28T18:41:24;2.22;;;1.63;;
75064;SDS011;63646;49.110;9.140;2022-11-28T18:43:53;1.98;;;1.40;;
75064;SDS011;63646;49.110;9.140;2022-11-28T18:46:20;1.63;;;1.40;;
75064;SDS011;63646;49.110;9.140;2022-11-28T18:48:46;1.98;;;1.60;;
75064;SDS011;63646;49.110;9.140;2022-11-28T18:51:16;1.42;;;1.33;;
75064;SDS011;63646;49.110;9.140;2022-11-28T18:53:52;2.10;;;1.30;;
75064;SDS011;63646;49.110;9.140;2022-11-28T18:56:19;2.22;;;1.30;;
75064;SDS011;63646;49.110;9.140;2022-11-28T18:58:46;3.88;;;1.25;;
75064;SDS011;63646;49.110;9.140;2022-11-28T19:03:46;2.10;;;1.60;;
75064;SDS011;63646;49.110;9.140;2022-11-28T19:06:13;1.50;;;1.40;;
75064;SDS011;63646;49.110;9.140;2022-11-28T19:08:38;1.52;;;1.42;;
75064;SDS011;63646;49.110;9.140;2022-11-28T19:11:04;1.50;;;1.33;;